Flight Track Log - Related Links

Times and Time Zones

All times are in EDT time to prevent confusion due to time zone crossing. See the RPA3396 flight status page for this flight to view local times or setup timezone preferences in your user account.

Time Position Orientation Groundspeed Altitude Reporting Facility
EDT Latitude Longitude Course Direction KTS MPH feet Rate Location/Type
Tue 03:23:49 PM 38.8667 -77.0500 61° Northeast 161 185 900  Level Potomac TRACON
Tue 03:26:00 PM 38.9657 -76.6861 67° East  Level FlightAware Approximate
Tue 03:26:02 PM 38.9575 -77.1506 319° Northwest 202 232 4,700  Level Washington Center
Tue 03:27:00 PM 39.0138 -76.5724 57° Northeast  Level FlightAware Approximate
Tue 03:27:00 PM 39.0222 -77.1467 North 223 257 8,000  Level Washington Center
Tue 03:28:00 PM 39.0578 -76.4556 63° Northeast  Level FlightAware Approximate
Tue 03:28:00 PM 39.0400 -77.0453 77° East 171 197 10,600  Level Washington Center
Tue 03:29:00 PM 39.1061 -76.3414 61° Northeast  Level FlightAware Approximate
Tue 03:29:02 PM 39.0539 -76.9228 82° East 253 291 12,400  Level Washington Center
Tue 03:30:02 PM 39.0719 -76.7947 80° East 299 344 14,700 2,288 Climbing Washington Center
Tue 03:31:00 PM 39.0878 -76.6667 81° East 345 397 16,900 2,017 Climbing Washington Center
Tue 03:32:01 PM 39.1056 -76.5331 80° East 371 427 18,700 1,820 Climbing Washington Center
Tue 03:33:02 PM 39.1233 -76.3889 81° East 386 444 20,600 1,884 Climbing Washington Center
Tue 03:34:02 PM 39.1408 -76.2447 81° East 396 456 22,500 1,210 Climbing Washington Center
Tue 03:35:01 PM 39.1686 -76.0789 78° East 412 474 23,000 500 Climbing Washington Center
Tue 03:36:02 PM 39.1881 -75.9208 81° East 432 497 23,500 992 Climbing Washington Center
Tue 03:37:02 PM 39.2611 -75.7928 54° Northeast 415 478 25,000 1,400 Climbing Washington Center
Tue 03:38:02 PM 39.3489 -75.6800 45° Northeast 425 489 26,300 1,373 Climbing Washington Center
Tue 03:39:00 PM 39.4364 -75.5672 45° Northeast 430 495 27,700 1,210 Climbing Washington Center
Tue 03:40:01 PM 39.5258 -75.4517 45° Northeast 442 509 28,700 639 Climbing Washington Center
Tue 03:41:02 PM 39.6133 -75.3331 46° Northeast 447 514 29,000 92 Climbing Washington Center
Tue 03:43:16 PM 39.7994 -75.0725 47° Northeast 469 540 29,000  Level New York Center
Tue 03:44:17 PM 39.8853 -74.9506 47° Northeast 463 533 29,000  Level New York Center
Tue 03:45:17 PM 39.9794 -74.8181 47° Northeast 469 540 29,000  Level New York Center
Tue 03:46:17 PM 40.0650 -74.6928 48° Northeast 454 522 29,000  Level New York Center
Tue 03:47:17 PM 40.1503 -74.5728 47° Northeast 454 522 29,000  Level New York Center
Tue 03:48:18 PM 40.2308 -74.4631 46° Northeast 454 522 29,000  Level New York Center
Tue 03:49:16 PM 40.3300 -74.3594 39° Northeast 454 522 29,000  Level New York Center
Tue 03:50:16 PM 40.4269 -74.2553 39° Northeast 449 517 29,000  Level New York Center
Tue 03:51:17 PM 40.5258 -74.1511 39° Northeast 449 517 29,000 -50 Level New York Center
Tue 03:52:17 PM 40.6203 -74.0464 40° Northeast 449 517 28,900 -966 Descending New York Center
Tue 03:54:11 PM 40.8014 -73.8547 39° Northeast 416 479 26,200 -1,621 Descending Boston Center
Tue 03:55:11 PM 40.8881 -73.7497 42° Northeast 411 473 24,200 -1,100 Descending Boston Center
Tue 03:56:11 PM 40.9664 -73.6442 45° Northeast 406 467 24,000 -450 Descending Boston Center
Tue 03:57:11 PM 41.0508 -73.5464 41° Northeast 401 461 23,300 -850 Descending Boston Center
Tue 03:58:11 PM 41.1350 -73.4461 42° Northeast 395 455 22,300 -1,000 Descending Boston Center
Tue 03:59:11 PM 41.2150 -73.3453 43° Northeast 395 455 21,300 -1,000 Descending Boston Center
Tue 04:00:11 PM 41.2969 -73.2553 40° Northeast 390 449 20,300 -1,000 Descending Boston Center
Tue 04:01:11 PM 41.3931 -73.2536 North 340 391 19,300 -1,100 Descending Boston Center
Tue 04:02:11 PM 41.4906 -73.2964 342° North 321 369 18,100 -650 Descending Boston Center
Tue 04:03:11 PM 41.5800 -73.3281 345° North 328 377 18,000 -150 Descending Boston Center
Tue 04:04:11 PM 41.6653 -73.3572 346° North 320 368 17,800 -650 Descending Boston Center
Tue 04:05:11 PM 41.7253 -73.3831 342° North 320 368 16,700 -1,450 Descending Boston Center
Tue 04:06:11 PM 41.8375 -73.4236 345° North 320 368 14,900 -1,735 Descending Boston Center
Tue 04:06:34 PM 41.8686 -73.4353 344° North 323 372 14,300 -1,700 Descending Boston Center
Tue 04:07:11 PM 41.9206 -73.4556 344° North 314 361 13,200 -1,522 Descending Boston Center
Tue 04:07:41 PM 41.9622 -73.4731 343° North 304 350 12,600 -1,300 Descending Boston Center
Tue 04:08:11 PM 42.0017 -73.4850 347° North 303 349 11,900 -1,475 Descending Boston Center
Tue 04:08:42 PM 42.0431 -73.5053 340° North 297 342 11,100 -900 Descending Boston Center
Tue 04:09:11 PM 42.0806 -73.5197 344° North 295 339 11,000 -91 Descending Boston Center
Tue 04:09:48 PM 42.1283 -73.5347 347° North 296 341 11,000  Level Boston Center
Tue 04:10:11 PM 42.1594 -73.5519 338° Northwest 295 339 11,000  Level Boston Center
Tue 04:10:43 PM 42.2008 -73.5694 343° North 297 342 11,000 -500 Level Boston Center
Tue 04:11:11 PM 42.2361 -73.5842 343° North 295 339 10,500 -1,377 Descending Boston Center
Tue 04:11:44 PM 42.2714 -73.5989 343° North 270 311 9,600 -1,600 Descending Boston Center
Tue 04:12:11 PM 42.3067 -73.6136 343° North 277 319 8,900 -1,700 Descending Boston Center
Tue 04:12:44 PM 42.3442 -73.6311 341° North 255 293 7,900 -1,500 Descending Boston Center
Tue 04:13:11 PM 42.3669 -73.6372 349° North 258 297 7,400 -1,574 Descending Boston Center
Tue 04:13:45 PM 42.4128 -73.6492 349° North 247 284 6,300 -1,800 Descending Boston Center
Tue 04:14:11 PM 42.4397 -73.6611 342° North 244 281 5,600 -1,770 Descending Boston Center
Tue 04:14:46 PM 42.4811 -73.6789 342° North 246 283 4,500 -1,600 Descending Boston Center
Tue 04:15:11 PM 42.5019 -73.6792 359° North 244 281 4,000 -1,182 Descending Boston Center
Tue 04:15:52 PM 42.5519 -73.6972 345° North 244 281 3,200 -1,000 Descending Boston Center
Tue 04:16:11 PM 42.5706 -73.7003 353° North 239 275 3,000 -197 Descending Boston Center
Tue 04:16:53 PM 42.6100 -73.7153 344° North 208 239 3,000  Level Boston Center
Tue 04:17:11 PM 42.6206 -73.7125 11° North 217 250 3,000 -154 Level Boston Center
Tue 04:18:11 PM 42.6789 -73.7139 359° North 192 221 2,800 -200 Descending Boston Center

Login

Don't have an account? Register now (free) for customized features, flight alerts, and more!